Terminal Aerodrome Forecast
Issued by NWS Cleveland, OH

Home | Current Version | Previous Version | Graphics & Text | Print | Product List | Glossary Off
Versions: 1 2 3 4 5 6 7 8 9 10 11 12 13 14 15 16 17 18 19 20 21 22 23 24 25 26 27 28 29 30 31 32

000
FTUS41 KCLE 292327
TAFCLE
TAF
KCLE 292327Z 3000/3106 20011KT P6SM VCTS SCT035CB SCT150
      TEMPO 3000/3001 25010G20KT 3SM -TSRA BR BKN035CB OVC070
     FM300200 22005KT P6SM SCT100
     FM300800 VRB03KT 6SM BR SKC
     FM301400 29007KT P6SM BKN030
     FM301600 30010KT P6SM SCT040
     FM310000 23005KT P6SM SKC=

USA.gov is the U.S. government's official web portal to all federal, state and local government web resources and services.